sensor_id;sensor_type;location;lat;lon;timestamp;temperature;humidity
67942;SHT31;54731;42.600;23.476;2022-11-04T00:00:36;11.97;65.06
67942;SHT31;54731;42.600;23.476;2022-11-04T00:03:01;11.99;65.16
67942;SHT31;54731;42.600;23.476;2022-11-04T00:05:26;11.92;65.58
67942;SHT31;54731;42.600;23.476;2022-11-04T00:07:52;11.86;65.79
67942;SHT31;54731;42.600;23.476;2022-11-04T00:10:17;11.87;66.00
67942;SHT31;54731;42.600;23.476;2022-11-04T00:12:42;11.76;66.22
67942;SHT31;54731;42.600;23.476;2022-11-04T00:15:08;11.76;66.24
67942;SHT31;54731;42.600;23.476;2022-11-04T00:17:33;11.79;66.42
67942;SHT31;54731;42.600;23.476;2022-11-04T00:19:58;11.72;66.42
67942;SHT31;54731;42.600;23.476;2022-11-04T00:22:24;11.73;66.41
67942;SHT31;54731;42.600;23.476;2022-11-04T00:24:49;11.73;66.81
67942;SHT31;54731;42.600;23.476;2022-11-04T00:27:19;11.69;66.63
67942;SHT31;54731;42.600;23.476;2022-11-04T00:29:44;11.61;66.88
67942;SHT31;54731;42.600;23.476;2022-11-04T00:32:10;11.63;66.90
67942;SHT31;54731;42.600;23.476;2022-11-04T00:34:35;11.59;67.03
67942;SHT31;54731;42.600;23.476;2022-11-04T00:37:00;11.52;67.22
67942;SHT31;54731;42.600;23.476;2022-11-04T00:39:26;11.49;67.54
67942;SHT31;54731;42.600;23.476;2022-11-04T00:41:51;11.43;67.57
67942;SHT31;54731;42.600;23.476;2022-11-04T00:44:16;11.42;67.59
67942;SHT31;54731;42.600;23.476;2022-11-04T00:46:42;11.40;67.96
67942;SHT31;54731;42.600;23.476;2022-11-04T00:49:07;11.38;68.10
67942;SHT31;54731;42.600;23.476;2022-11-04T00:51:32;11.35;68.03
67942;SHT31;54731;42.600;23.476;2022-11-04T00:53:57;11.32;68.16
67942;SHT31;54731;42.600;23.476;2022-11-04T00:56:23;11.27;68.55
67942;SHT31;54731;42.600;23.476;2022-11-04T00:58:48;11.27;68.64
67942;SHT31;54731;42.600;23.476;2022-11-04T01:01:15;11.24;68.62
67942;SHT31;54731;42.600;23.476;2022-11-04T01:03:40;11.29;68.59
67942;SHT31;54731;42.600;23.476;2022-11-04T01:06:05;11.22;68.64
67942;SHT31;54731;42.600;23.476;2022-11-04T01:08:31;11.08;69.46
67942;SHT31;54731;42.600;23.476;2022-11-04T01:11:03;11.01;69.88
67942;SHT31;54731;42.600;23.476;2022-11-04T01:13:29;10.93;70.49
67942;SHT31;54731;42.600;23.476;2022-11-04T01:16:02;10.91;70.73
67942;SHT31;54731;42.600;23.476;2022-11-04T01:18:27;10.94;70.37
67942;SHT31;54731;42.600;23.476;2022-11-04T01:20:53;10.85;70.73
67942;SHT31;54731;42.600;23.476;2022-11-04T01:23:19;10.83;71.06
67942;SHT31;54731;42.600;23.476;2022-11-04T01:25:45;10.81;71.30
67942;SHT31;54731;42.600;23.476;2022-11-04T01:28:10;10.75;71.50
67942;SHT31;54731;42.600;23.476;2022-11-04T01:30:39;10.73;71.92
67942;SHT31;54731;42.600;23.476;2022-11-04T01:33:04;10.71;71.84
67942;SHT31;54731;42.600;23.476;2022-11-04T01:35:30;10.70;71.89
67942;SHT31;54731;42.600;23.476;2022-11-04T01:37:56;10.74;71.87
67942;SHT31;54731;42.600;23.476;2022-11-04T01:40:22;10.71;71.86
67942;SHT31;54731;42.600;23.476;2022-11-04T01:42:47;10.75;71.94
67942;SHT31;54731;42.600;23.476;2022-11-04T01:45:14;10.75;71.94
67942;SHT31;54731;42.600;23.476;2022-11-04T01:47:44;10.74;72.16
67942;SHT31;54731;42.600;23.476;2022-11-04T01:50:17;10.68;72.29
67942;SHT31;54731;42.600;23.476;2022-11-04T01:52:52;10.73;72.22
67942;SHT31;54731;42.600;23.476;2022-11-04T01:55:25;10.71;72.41
67942;SHT31;54731;42.600;23.476;2022-11-04T01:57:55;10.70;72.60
67942;SHT31;54731;42.600;23.476;2022-11-04T02:00:21;10.66;72.63
67942;SHT31;54731;42.600;23.476;2022-11-04T02:02:53;10.75;72.39
67942;SHT31;54731;42.600;23.476;2022-11-04T02:05:21;10.73;72.60
67942;SHT31;54731;42.600;23.476;2022-11-04T02:07:53;10.75;72.40
67942;SHT31;54731;42.600;23.476;2022-11-04T02:10:21;10.68;72.71
67942;SHT31;54731;42.600;23.476;2022-11-04T02:12:47;10.63;73.13
67942;SHT31;54731;42.600;23.476;2022-11-04T02:15:13;10.66;73.13
67942;SHT31;54731;42.600;23.476;2022-11-04T02:20:30;10.53;73.82
67942;SHT31;54731;42.600;23.476;2022-11-04T02:23:05;10.52;74.01
67942;SHT31;54731;42.600;23.476;2022-11-04T02:37:05;10.44;74.78
67942;SHT31;54731;42.600;23.476;2022-11-04T02:42:14;10.43;74.94
67942;SHT31;54731;42.600;23.476;2022-11-04T02:48:01;10.46;74.88
67942;SHT31;54731;42.600;23.476;2022-11-04T02:50:55;10.44;74.92
67942;SHT31;54731;42.600;23.476;2022-11-04T02:53:29;10.46;74.90
67942;SHT31;54731;42.600;23.476;2022-11-04T02:55:57;10.49;75.05
67942;SHT31;54731;42.600;23.476;2022-11-04T02:58:31;10.47;75.02
67942;SHT31;54731;42.600;23.476;2022-11-04T03:00:59;10.44;75.22
67942;SHT31;54731;42.600;23.476;2022-11-04T03:03:30;10.47;75.20
67942;SHT31;54731;42.600;23.476;2022-11-04T03:05:59;10.47;75.16
67942;SHT31;54731;42.600;23.476;2022-11-04T03:08:34;10.42;75.50
67942;SHT31;54731;42.600;23.476;2022-11-04T03:11:12;10.42;75.69
67942;SHT31;54731;42.600;23.476;2022-11-04T03:14:03;10.49;75.47
67942;SHT31;54731;42.600;23.476;2022-11-04T03:16:36;10.44;75.78
67942;SHT31;54731;42.600;23.476;2022-11-04T03:22:05;10.42;75.92
67942;SHT31;54731;42.600;23.476;2022-11-04T03:24:34;10.42;76.13
67942;SHT31;54731;42.600;23.476;2022-11-04T03:30:11;10.50;75.83
67942;SHT31;54731;42.600;23.476;2022-11-04T03:35:09;10.39;76.07
67942;SHT31;54731;42.600;23.476;2022-11-04T03:37:35;10.40;76.27
67942;SHT31;54731;42.600;23.476;2022-11-04T03:40:01;10.39;76.07
67942;SHT31;54731;42.600;23.476;2022-11-04T03:42:29;10.39;76.67
67942;SHT31;54731;42.600;23.476;2022-11-04T03:44:57;10.34;76.55
67942;SHT31;54731;42.600;23.476;2022-11-04T03:47:25;10.28;76.30
67942;SHT31;54731;42.600;23.476;2022-11-04T03:49:58;10.26;76.46
67942;SHT31;54731;42.600;23.476;2022-11-04T03:52:25;10.30;76.79
67942;SHT31;54731;42.600;23.476;2022-11-04T03:54:50;10.22;77.24
67942;SHT31;54731;42.600;23.476;2022-11-04T04:00:15;10.22;76.73
67942;SHT31;54731;42.600;23.476;2022-11-04T04:05:53;10.16;77.39
67942;SHT31;54731;42.600;23.476;2022-11-04T04:08:38;10.20;77.37
67942;SHT31;54731;42.600;23.476;2022-11-04T04:11:18;10.13;77.03
67942;SHT31;54731;42.600;23.476;2022-11-04T04:13:54;10.09;76.21
67942;SHT31;54731;42.600;23.476;2022-11-04T04:16:28;10.09;76.01
67942;SHT31;54731;42.600;23.476;2022-11-04T04:19:08;10.03;77.17
67942;SHT31;54731;42.600;23.476;2022-11-04T04:21:41;10.03;77.64
67942;SHT31;54731;42.600;23.476;2022-11-04T04:24:08;10.03;77.19
67942;SHT31;54731;42.600;23.476;2022-11-04T04:26:36;10.03;77.24
67942;SHT31;54731;42.600;23.476;2022-11-04T04:29:04;10.06;76.83
67942;SHT31;54731;42.600;23.476;2022-11-04T04:31:30;10.03;77.49
67942;SHT31;54731;42.600;23.476;2022-11-04T04:33:57;9.98;76.98
67942;SHT31;54731;42.600;23.476;2022-11-04T04:36:23;9.89;76.31
67942;SHT31;54731;42.600;23.476;2022-11-04T04:38:48;9.88;77.04
67942;SHT31;54731;42.600;23.476;2022-11-04T04:41:17;9.92;77.20
67942;SHT31;54731;42.600;23.476;2022-11-04T04:43:43;9.83;76.76
67942;SHT31;54731;42.600;23.476;2022-11-04T04:46:10;9.77;77.42
67942;SHT31;54731;42.600;23.476;2022-11-04T04:48:36;9.77;78.35
67942;SHT31;54731;42.600;23.476;2022-11-04T04:51:01;9.79;77.78
67942;SHT31;54731;42.600;23.476;2022-11-04T04:53:26;9.77;77.79
67942;SHT31;54731;42.600;23.476;2022-11-04T04:55:52;9.75;77.73
67942;SHT31;54731;42.600;23.476;2022-11-04T04:58:17;9.72;77.80
67942;SHT31;54731;42.600;23.476;2022-11-04T05:00:42;9.72;77.28
67942;SHT31;54731;42.600;23.476;2022-11-04T05:03:08;9.67;77.47
67942;SHT31;54731;42.600;23.476;2022-11-04T05:05:33;9.63;78.64
67942;SHT31;54731;42.600;23.476;2022-11-04T05:08:06;9.65;78.67
67942;SHT31;54731;42.600;23.476;2022-11-04T05:10:31;9.67;79.18
67942;SHT31;54731;42.600;23.476;2022-11-04T05:12:58;9.62;78.48
67942;SHT31;54731;42.600;23.476;2022-11-04T05:15:25;9.62;78.83
67942;SHT31;54731;42.600;23.476;2022-11-04T05:17:55;9.58;78.65
67942;SHT31;54731;42.600;23.476;2022-11-04T05:20:21;9.55;79.24
67942;SHT31;54731;42.600;23.476;2022-11-04T05:22:46;9.49;78.98
67942;SHT31;54731;42.600;23.476;2022-11-04T05:25:11;9.54;78.96
67942;SHT31;54731;42.600;23.476;2022-11-04T05:27:37;9.48;80.06
67942;SHT31;54731;42.600;23.476;2022-11-04T05:30:02;9.47;79.76
67942;SHT31;54731;42.600;23.476;2022-11-04T05:32:29;9.48;79.36
67942;SHT31;54731;42.600;23.476;2022-11-04T05:34:54;9.51;79.15
67942;SHT31;54731;42.600;23.476;2022-11-04T05:37:19;9.57;79.01
67942;SHT31;54731;42.600;23.476;2022-11-04T05:39:45;9.45;79.93
67942;SHT31;54731;42.600;23.476;2022-11-04T05:42:10;9.38;80.63
67942;SHT31;54731;42.600;23.476;2022-11-04T05:44:35;9.35;80.92
67942;SHT31;54731;42.600;23.476;2022-11-04T05:47:01;9.38;80.79
67942;SHT31;54731;42.600;23.476;2022-11-04T05:49:26;9.41;80.72
67942;SHT31;54731;42.600;23.476;2022-11-04T05:51:51;9.35;81.08
67942;SHT31;54731;42.600;23.476;2022-11-04T05:54:16;9.44;80.83
67942;SHT31;54731;42.600;23.476;2022-11-04T05:56:42;9.44;80.66
67942;SHT31;54731;42.600;23.476;2022-11-04T05:59:07;9.39;80.85
67942;SHT31;54731;42.600;23.476;2022-11-04T06:01:35;9.41;80.89
67942;SHT31;54731;42.600;23.476;2022-11-04T06:04:01;9.31;81.18
67942;SHT31;54731;42.600;23.476;2022-11-04T06:06:30;9.28;81.20
67942;SHT31;54731;42.600;23.476;2022-11-04T06:08:56;9.30;81.02
67942;SHT31;54731;42.600;23.476;2022-11-04T06:11:22;9.38;80.69
67942;SHT31;54731;42.600;23.476;2022-11-04T06:13:48;9.37;80.77
67942;SHT31;54731;42.600;23.476;2022-11-04T06:16:14;9.38;80.84
67942;SHT31;54731;42.600;23.476;2022-11-04T06:18:39;9.48;80.64
67942;SHT31;54731;42.600;23.476;2022-11-04T06:21:09;9.49;80.51
67942;SHT31;54731;42.600;23.476;2022-11-04T06:23:34;9.49;80.47
67942;SHT31;54731;42.600;23.476;2022-11-04T06:26:00;9.58;80.37
67942;SHT31;54731;42.600;23.476;2022-11-04T06:28:25;9.58;80.31
67942;SHT31;54731;42.600;23.476;2022-11-04T06:30:50;9.48;80.81
67942;SHT31;54731;42.600;23.476;2022-11-04T06:33:16;9.55;80.72
67942;SHT31;54731;42.600;23.476;2022-11-04T06:35:41;9.48;81.00
67942;SHT31;54731;42.600;23.476;2022-11-04T06:38:06;9.51;80.88
67942;SHT31;54731;42.600;23.476;2022-11-04T06:40:32;9.44;81.32
67942;SHT31;54731;42.600;23.476;2022-11-04T06:42:57;9.51;81.27
67942;SHT31;54731;42.600;23.476;2022-11-04T06:45:22;9.52;81.20
67942;SHT31;54731;42.600;23.476;2022-11-04T06:47:48;9.55;81.21
67942;SHT31;54731;42.600;23.476;2022-11-04T06:50:13;9.58;80.90
67942;SHT31;54731;42.600;23.476;2022-11-04T06:52:38;9.59;80.81
67942;SHT31;54731;42.600;23.476;2022-11-04T06:55:04;9.68;80.67
67942;SHT31;54731;42.600;23.476;2022-11-04T06:57:30;9.71;80.61
67942;SHT31;54731;42.600;23.476;2022-11-04T06:59:55;9.77;80.38
67942;SHT31;54731;42.600;23.476;2022-11-04T07:02:20;9.81;80.18
67942;SHT31;54731;42.600;23.476;2022-11-04T07:04:46;9.82;79.98
67942;SHT31;54731;42.600;23.476;2022-11-04T07:07:11;9.78;80.09
67942;SHT31;54731;42.600;23.476;2022-11-04T07:09:36;9.83;80.02
67942;SHT31;54731;42.600;23.476;2022-11-04T07:12:02;9.89;79.82
67942;SHT31;54731;42.600;23.476;2022-11-04T07:14:27;9.89;79.85
67942;SHT31;54731;42.600;23.476;2022-11-04T07:16:52;9.91;79.69
67942;SHT31;54731;42.600;23.476;2022-11-04T07:19:18;9.91;79.82
67942;SHT31;54731;42.600;23.476;2022-11-04T07:21:43;9.95;79.65
67942;SHT31;54731;42.600;23.476;2022-11-04T07:24:08;9.98;79.52
67942;SHT31;54731;42.600;23.476;2022-11-04T07:26:34;9.83;80.00
67942;SHT31;54731;42.600;23.476;2022-11-04T07:28:59;9.96;79.51
67942;SHT31;54731;42.600;23.476;2022-11-04T07:31:24;9.98;79.30
67942;SHT31;54731;42.600;23.476;2022-11-04T07:33:49;10.02;79.29
67942;SHT31;54731;42.600;23.476;2022-11-04T07:36:15;10.09;79.02
67942;SHT31;54731;42.600;23.476;2022-11-04T07:38:40;10.17;78.59
67942;SHT31;54731;42.600;23.476;2022-11-04T07:41:05;10.20;78.41
67942;SHT31;54731;42.600;23.476;2022-11-04T07:43:31;10.28;77.85
67942;SHT31;54731;42.600;23.476;2022-11-04T07:46:01;10.33;77.65
67942;SHT31;54731;42.600;23.476;2022-11-04T07:48:27;10.44;77.14
67942;SHT31;54731;42.600;23.476;2022-11-04T07:50:57;10.46;77.07
67942;SHT31;54731;42.600;23.476;2022-11-04T07:53:22;10.46;77.00
67942;SHT31;54731;42.600;23.476;2022-11-04T07:55:48;10.52;77.09
67942;SHT31;54731;42.600;23.476;2022-11-04T07:58:13;10.60;76.99
67942;SHT31;54731;42.600;23.476;2022-11-04T08:00:38;10.64;77.04
67942;SHT31;54731;42.600;23.476;2022-11-04T08:03:03;10.67;76.98
67942;SHT31;54731;42.600;23.476;2022-11-04T08:05:29;10.66;77.11
67942;SHT31;54731;42.600;23.476;2022-11-04T08:07:54;10.73;77.00
67942;SHT31;54731;42.600;23.476;2022-11-04T08:10:19;10.73;77.08
67942;SHT31;54731;42.600;23.476;2022-11-04T08:12:45;10.68;77.12
67942;SHT31;54731;42.600;23.476;2022-11-04T08:15:10;10.74;77.12
67942;SHT31;54731;42.600;23.476;2022-11-04T08:17:35;10.73;76.96
67942;SHT31;54731;42.600;23.476;2022-11-04T08:20:00;10.75;76.92
67942;SHT31;54731;42.600;23.476;2022-11-04T08:22:26;10.83;76.61
67942;SHT31;54731;42.600;23.476;2022-11-04T08:24:51;10.93;76.33
67942;SHT31;54731;42.600;23.476;2022-11-04T08:27:16;10.93;76.43
67942;SHT31;54731;42.600;23.476;2022-11-04T08:29:42;11.01;75.96
67942;SHT31;54731;42.600;23.476;2022-11-04T08:32:07;11.05;76.15
67942;SHT31;54731;42.600;23.476;2022-11-04T08:34:33;11.08;76.16
67942;SHT31;54731;42.600;23.476;2022-11-04T08:36:58;11.19;75.52
67942;SHT31;54731;42.600;23.476;2022-11-04T08:39:23;11.24;75.36
67942;SHT31;54731;42.600;23.476;2022-11-04T08:41:49;11.35;75.41
67942;SHT31;54731;42.600;23.476;2022-11-04T08:44:15;11.46;74.74
67942;SHT31;54731;42.600;23.476;2022-11-04T08:46:42;11.55;74.53
67942;SHT31;54731;42.600;23.476;2022-11-04T08:49:08;11.63;74.03
67942;SHT31;54731;42.600;23.476;2022-11-04T08:51:36;11.69;73.80
67942;SHT31;54731;42.600;23.476;2022-11-04T08:54:03;11.73;73.45
67942;SHT31;54731;42.600;23.476;2022-11-04T08:56:31;11.86;73.08
67942;SHT31;54731;42.600;23.476;2022-11-04T08:58:57;11.94;72.76
67942;SHT31;54731;42.600;23.476;2022-11-04T09:01:23;12.07;72.29
67942;SHT31;54731;42.600;23.476;2022-11-04T09:03:49;12.17;71.89
67942;SHT31;54731;42.600;23.476;2022-11-04T09:06:18;12.27;71.48
67942;SHT31;54731;42.600;23.476;2022-11-04T09:08:44;12.30;71.02
67942;SHT31;54731;42.600;23.476;2022-11-04T09:11:11;12.41;70.89
67942;SHT31;54731;42.600;23.476;2022-11-04T09:13:37;12.51;70.68
67942;SHT31;54731;42.600;23.476;2022-11-04T09:16:03;12.63;70.08
67942;SHT31;54731;42.600;23.476;2022-11-04T09:18:29;12.75;69.67
67942;SHT31;54731;42.600;23.476;2022-11-04T09:20:58;12.88;69.20
67942;SHT31;54731;42.600;23.476;2022-11-04T09:23:23;12.99;68.40
67942;SHT31;54731;42.600;23.476;2022-11-04T09:25:49;13.01;68.10
67942;SHT31;54731;42.600;23.476;2022-11-04T09:28:14;13.11;67.34
67942;SHT31;54731;42.600;23.476;2022-11-04T09:30:39;13.22;66.83
67942;SHT31;54731;42.600;23.476;2022-11-04T09:33:05;13.36;65.64
67942;SHT31;54731;42.600;23.476;2022-11-04T09:35:30;13.50;65.31
67942;SHT31;54731;42.600;23.476;2022-11-04T09:37:58;13.60;64.92
67942;SHT31;54731;42.600;23.476;2022-11-04T09:40:24;13.70;64.29
67942;SHT31;54731;42.600;23.476;2022-11-04T09:43:12;13.77;63.81
67942;SHT31;54731;42.600;23.476;2022-11-04T09:45:40;13.83;63.63
67942;SHT31;54731;42.600;23.476;2022-11-04T09:48:12;13.93;63.21
67942;SHT31;54731;42.600;23.476;2022-11-04T09:50:50;14.03;62.38
67942;SHT31;54731;42.600;23.476;2022-11-04T09:53:21;14.16;61.63
67942;SHT31;54731;42.600;23.476;2022-11-04T09:55:53;14.25;61.72
67942;SHT31;54731;42.600;23.476;2022-11-04T09:58:19;14.31;61.91
67942;SHT31;54731;42.600;23.476;2022-11-04T10:00:54;14.45;62.03
67942;SHT31;54731;42.600;23.476;2022-11-04T10:06:18;14.76;61.03
67942;SHT31;54731;42.600;23.476;2022-11-04T10:14:13;15.20;59.07
67942;SHT31;54731;42.600;23.476;2022-11-04T10:17:20;15.39;58.81
67942;SHT31;54731;42.600;23.476;2022-11-04T10:19:57;15.59;57.44
67942;SHT31;54731;42.600;23.476;2022-11-04T10:22:31;15.73;57.45
67942;SHT31;54731;42.600;23.476;2022-11-04T10:25:10;15.86;56.66
67942;SHT31;54731;42.600;23.476;2022-11-04T10:27:40;15.98;56.51
67942;SHT31;54731;42.600;23.476;2022-11-04T10:30:33;16.12;56.07
67942;SHT31;54731;42.600;23.476;2022-11-04T10:33:08;16.26;56.14
67942;SHT31;54731;42.600;23.476;2022-11-04T10:35:41;16.44;54.91
67942;SHT31;54731;42.600;23.476;2022-11-04T10:40:40;16.53;54.41
67942;SHT31;54731;42.600;23.476;2022-11-04T10:43:09;16.65;53.93
67942;SHT31;54731;42.600;23.476;2022-11-04T10:45:47;16.83;52.96
67942;SHT31;54731;42.600;23.476;2022-11-04T10:48:21;17.03;53.35
67942;SHT31;54731;42.600;23.476;2022-11-04T10:50:54;17.07;53.45
67942;SHT31;54731;42.600;23.476;2022-11-04T10:53:25;17.12;53.55
67942;SHT31;54731;42.600;23.476;2022-11-04T10:55:55;17.19;53.55
67942;SHT31;54731;42.600;23.476;2022-11-04T10:58:24;17.30;53.63
67942;SHT31;54731;42.600;23.476;2022-11-04T11:00:51;17.43;53.70
67942;SHT31;54731;42.600;23.476;2022-11-04T11:03:34;17.57;52.28
67942;SHT31;54731;42.600;23.476;2022-11-04T11:06:21;17.64;52.19
67942;SHT31;54731;42.600;23.476;2022-11-04T11:08:48;17.74;52.16
67942;SHT31;54731;42.600;23.476;2022-11-04T11:11:14;17.98;52.94
67942;SHT31;54731;42.600;23.476;2022-11-04T11:13:44;18.28;51.41
67942;SHT31;54731;42.600;23.476;2022-11-04T11:16:25;18.57;50.00
67942;SHT31;54731;42.600;23.476;2022-11-04T11:24:25;19.17;48.26
67942;SHT31;54731;42.600;23.476;2022-11-04T11:26:56;19.43;48.64
67942;SHT31;54731;42.600;23.476;2022-11-04T11:31:50;19.93;46.69
67942;SHT31;54731;42.600;23.476;2022-11-04T11:34:30;20.20;45.09
67942;SHT31;54731;42.600;23.476;2022-11-04T11:36:56;20.39;44.37
67942;SHT31;54731;42.600;23.476;2022-11-04T11:39:27;20.39;45.06
67942;SHT31;54731;42.600;23.476;2022-11-04T11:42:02;20.44;43.18
67942;SHT31;54731;42.600;23.476;2022-11-04T11:44:45;20.60;44.31
67942;SHT31;54731;42.600;23.476;2022-11-04T11:52:41;20.97;41.92
67942;SHT31;54731;42.600;23.476;2022-11-04T11:58:21;21.47;41.93
67942;SHT31;54731;42.600;23.476;2022-11-04T12:00:53;21.78;40.30
67942;SHT31;54731;42.600;23.476;2022-11-04T12:03:42;22.05;39.59
67942;SHT31;54731;42.600;23.476;2022-11-04T12:06:29;21.85;39.01
67942;SHT31;54731;42.600;23.476;2022-11-04T12:22:57;20.76;42.33
67942;SHT31;54731;42.600;23.476;2022-11-04T12:36:29;19.95;43.89
67942;SHT31;54731;42.600;23.476;2022-11-04T12:41:51;20.15;44.41
67942;SHT31;54731;42.600;23.476;2022-11-04T12:49:42;19.98;45.03
67942;SHT31;54731;42.600;23.476;2022-11-04T12:54:53;20.05;43.94
67942;SHT31;54731;42.600;23.476;2022-11-04T13:02:48;19.93;44.34
67942;SHT31;54731;42.600;23.476;2022-11-04T13:05:37;19.58;45.06
67942;SHT31;54731;42.600;23.476;2022-11-04T13:13:33;19.55;45.09
67942;SHT31;54731;42.600;23.476;2022-11-04T13:16:09;19.67;44.64
67942;SHT31;54731;42.600;23.476;2022-11-04T13:18:37;19.62;43.27
67942;SHT31;54731;42.600;23.476;2022-11-04T13:21:09;19.68;43.55
67942;SHT31;54731;42.600;23.476;2022-11-04T13:24:20;19.61;43.94
67942;SHT31;54731;42.600;23.476;2022-11-04T13:26:34;19.59;43.97
67942;SHT31;54731;42.600;23.476;2022-11-04T13:29:08;19.38;45.16
67942;SHT31;54731;42.600;23.476;2022-11-04T13:32:03;19.08;45.82
67942;SHT31;54731;42.600;23.476;2022-11-04T13:40:09;18.84;46.02
67942;SHT31;54731;42.600;23.476;2022-11-04T13:45:10;18.55;47.36
67942;SHT31;54731;42.600;23.476;2022-11-04T13:47:50;18.49;45.46
67942;SHT31;54731;42.600;23.476;2022-11-04T13:50:33;18.33;47.27
67942;SHT31;54731;42.600;23.476;2022-11-04T13:52:59;18.32;47.41
67942;SHT31;54731;42.600;23.476;2022-11-04T13:55:24;18.25;46.98
67942;SHT31;54731;42.600;23.476;2022-11-04T14:00:23;18.22;47.70
67942;SHT31;54731;42.600;23.476;2022-11-04T14:02:58;18.08;48.04
67942;SHT31;54731;42.600;23.476;2022-11-04T14:10:44;17.84;46.86
67942;SHT31;54731;42.600;23.476;2022-11-04T14:16:03;17.60;48.14
67942;SHT31;54731;42.600;23.476;2022-11-04T14:18:31;17.66;46.78
67942;SHT31;54731;42.600;23.476;2022-11-04T14:23:36;17.43;48.92
67942;SHT31;54731;42.600;23.476;2022-11-04T14:26:13;17.41;49.71
67942;SHT31;54731;42.600;23.476;2022-11-04T14:28:45;17.30;50.27
67942;SHT31;54731;42.600;23.476;2022-11-04T14:31:38;17.19;50.62
67942;SHT31;54731;42.600;23.476;2022-11-04T14:34:05;17.15;50.95
67942;SHT31;54731;42.600;23.476;2022-11-04T14:36:33;17.02;51.44
67942;SHT31;54731;42.600;23.476;2022-11-04T14:39:03;16.99;51.82
67942;SHT31;54731;42.600;23.476;2022-11-04T14:46:59;16.76;52.57
67942;SHT31;54731;42.600;23.476;2022-11-04T14:54:40;16.58;52.60
67942;SHT31;54731;42.600;23.476;2022-11-04T14:57:12;16.55;52.49
67942;SHT31;54731;42.600;23.476;2022-11-04T14:59:38;16.44;52.52
67942;SHT31;54731;42.600;23.476;2022-11-04T15:02:03;16.29;53.02
67942;SHT31;54731;42.600;23.476;2022-11-04T15:04:29;16.22;53.28
67942;SHT31;54731;42.600;23.476;2022-11-04T15:06:56;16.20;53.47
67942;SHT31;54731;42.600;23.476;2022-11-04T15:09:37;16.10;53.69
67942;SHT31;54731;42.600;23.476;2022-11-04T15:12:11;16.01;54.01
67942;SHT31;54731;42.600;23.476;2022-11-04T15:14:37;16.02;53.79
67942;SHT31;54731;42.600;23.476;2022-11-04T15:17:02;16.00;54.01
67942;SHT31;54731;42.600;23.476;2022-11-04T15:19:30;15.83;54.46
67942;SHT31;54731;42.600;23.476;2022-11-04T15:21:58;15.80;54.61
67942;SHT31;54731;42.600;23.476;2022-11-04T15:24:25;15.70;54.38
67942;SHT31;54731;42.600;23.476;2022-11-04T15:26:51;15.54;55.40
67942;SHT31;54731;42.600;23.476;2022-11-04T15:29:18;15.54;55.32
67942;SHT31;54731;42.600;23.476;2022-11-04T15:34:20;15.37;56.21
67942;SHT31;54731;42.600;23.476;2022-11-04T15:36:47;15.30;56.25
67942;SHT31;54731;42.600;23.476;2022-11-04T15:39:26;15.25;56.43
67942;SHT31;54731;42.600;23.476;2022-11-04T15:42:05;15.20;56.56
67942;SHT31;54731;42.600;23.476;2022-11-04T15:44:34;15.10;56.72
67942;SHT31;54731;42.600;23.476;2022-11-04T15:47:02;15.05;56.90
67942;SHT31;54731;42.600;23.476;2022-11-04T15:49:32;15.00;57.25
67942;SHT31;54731;42.600;23.476;2022-11-04T15:52:05;14.93;57.47
67942;SHT31;54731;42.600;23.476;2022-11-04T15:54:36;14.89;57.83
67942;SHT31;54731;42.600;23.476;2022-11-04T15:57:11;14.78;58.24
67942;SHT31;54731;42.600;23.476;2022-11-04T15:59:39;14.64;58.82
67942;SHT31;54731;42.600;23.476;2022-11-04T16:02:24;14.58;58.70
67942;SHT31;54731;42.600;23.476;2022-11-04T16:07:42;14.51;58.76
67942;SHT31;54731;42.600;23.476;2022-11-04T16:10:32;14.51;58.65
67942;SHT31;54731;42.600;23.476;2022-11-04T16:15:50;14.38;58.62
67942;SHT31;54731;42.600;23.476;2022-11-04T16:21:06;14.33;58.66
67942;SHT31;54731;42.600;23.476;2022-11-04T16:23:42;14.33;58.59
67942;SHT31;54731;42.600;23.476;2022-11-04T16:26:11;14.31;58.77
67942;SHT31;54731;42.600;23.476;2022-11-04T16:28:38;14.23;58.48
67942;SHT31;54731;42.600;23.476;2022-11-04T16:33:40;14.18;58.44
67942;SHT31;54731;42.600;23.476;2022-11-04T16:36:11;14.10;59.24
67942;SHT31;54731;42.600;23.476;2022-11-04T16:38:38;14.11;58.94
67942;SHT31;54731;42.600;23.476;2022-11-04T16:41:03;14.06;59.26
67942;SHT31;54731;42.600;23.476;2022-11-04T16:43:28;14.09;58.95
67942;SHT31;54731;42.600;23.476;2022-11-04T16:45:54;14.10;59.01
67942;SHT31;54731;42.600;23.476;2022-11-04T16:48:20;14.09;58.91
67942;SHT31;54731;42.600;23.476;2022-11-04T16:50:45;14.00;59.73
67942;SHT31;54731;42.600;23.476;2022-11-04T17:28:17;13.43;60.20
67942;SHT31;54731;42.600;23.476;2022-11-04T17:30:43;13.36;59.46
67942;SHT31;54731;42.600;23.476;2022-11-04T17:33:15;13.39;60.35
67942;SHT31;54731;42.600;23.476;2022-11-04T17:35:42;13.39;59.82
67942;SHT31;54731;42.600;23.476;2022-11-04T17:38:11;13.34;60.10
67942;SHT31;54731;42.600;23.476;2022-11-04T17:40:37;13.28;60.66
67942;SHT31;54731;42.600;23.476;2022-11-04T17:43:03;13.14;61.54
67942;SHT31;54731;42.600;23.476;2022-11-04T17:45:28;13.09;62.12
67942;SHT31;54731;42.600;23.476;2022-11-04T17:47:54;13.08;61.84
67942;SHT31;54731;42.600;23.476;2022-11-04T17:50:19;13.06;61.24
67942;SHT31;54731;42.600;23.476;2022-11-04T17:52:45;13.08;61.41
67942;SHT31;54731;42.600;23.476;2022-11-04T17:55:10;13.04;61.53
67942;SHT31;54731;42.600;23.476;2022-11-04T17:57:35;12.98;61.56
67942;SHT31;54731;42.600;23.476;2022-11-04T18:00:01;12.96;60.90
67942;SHT31;54731;42.600;23.476;2022-11-04T18:02:26;12.94;61.90
67942;SHT31;54731;42.600;23.476;2022-11-04T18:04:51;12.94;61.85
67942;SHT31;54731;42.600;23.476;2022-11-04T18:07:17;12.88;61.82
67942;SHT31;54731;42.600;23.476;2022-11-04T18:09:42;12.85;62.11
67942;SHT31;54731;42.600;23.476;2022-11-04T18:12:07;12.89;62.40
67942;SHT31;54731;42.600;23.476;2022-11-04T18:32:16;12.71;63.65
67942;SHT31;54731;42.600;23.476;2022-11-04T18:34:41;12.75;64.06
67942;SHT31;54731;42.600;23.476;2022-11-04T18:37:06;12.74;63.97
67942;SHT31;54731;42.600;23.476;2022-11-04T18:39:32;12.71;64.29
67942;SHT31;54731;42.600;23.476;2022-11-04T18:41:57;12.68;64.62
67942;SHT31;54731;42.600;23.476;2022-11-04T18:44:22;12.67;64.53
67942;SHT31;54731;42.600;23.476;2022-11-04T18:46:48;12.60;65.10
67942;SHT31;54731;42.600;23.476;2022-11-04T18:49:14;12.58;65.04
67942;SHT31;54731;42.600;23.476;2022-11-04T18:51:41;12.64;65.08
67942;SHT31;54731;42.600;23.476;2022-11-04T18:54:06;12.67;64.99
67942;SHT31;54731;42.600;23.476;2022-11-04T18:56:33;12.63;65.13